createdAt,value
2018-05-16T00:00:10.872Z,12.09
2018-05-16T00:02:40.259Z,12.23
2018-05-16T00:05:09.360Z,12.28
2018-05-16T00:07:38.532Z,12.22
2018-05-16T00:10:07.969Z,12.27
2018-05-16T00:12:37.232Z,12.28
2018-05-16T00:15:06.547Z,12.20
2018-05-16T00:17:35.597Z,12.17
2018-05-16T00:20:05.729Z,12.25
2018-05-16T00:22:35.027Z,12.22
2018-05-16T00:25:04.864Z,12.20
2018-05-16T00:27:34.235Z,12.26
2018-05-16T00:30:04.437Z,12.27
2018-05-16T00:32:33.436Z,12.39
2018-05-16T00:35:02.677Z,12.42
2018-05-16T00:37:32.072Z,12.51
2018-05-16T00:40:01.421Z,12.51
2018-05-16T00:42:30.704Z,12.52
2018-05-16T00:44:59.875Z,12.49
2018-05-16T00:47:29.235Z,12.52
2018-05-16T00:49:58.472Z,12.50
2018-05-16T00:52:27.884Z,12.53
2018-05-16T00:55:03.261Z,12.67
2018-05-16T00:57:32.520Z,12.67
2018-05-16T01:00:01.752Z,12.58
2018-05-16T01:02:31.095Z,12.57
2018-05-16T01:05:00.532Z,12.57
2018-05-16T01:07:29.836Z,12.57
2018-05-16T01:09:59.135Z,12.59
2018-05-16T01:12:28.492Z,12.59
2018-05-16T01:14:57.496Z,12.60
2018-05-16T01:17:26.736Z,12.62
2018-05-16T01:19:56.112Z,12.67
2018-05-16T01:22:25.440Z,12.67
2018-05-16T01:24:54.702Z,12.72
2018-05-16T01:27:24.031Z,12.73
2018-05-16T01:29:53.097Z,12.74
2018-05-16T01:32:22.363Z,12.79
2018-05-16T01:34:51.717Z,12.75
2018-05-16T01:37:21.037Z,12.82
2018-05-16T01:39:50.290Z,12.80
2018-05-16T01:42:19.636Z,12.82
2018-05-16T01:44:48.792Z,12.88
2018-05-16T01:47:17.940Z,12.91
2018-05-16T01:49:47.303Z,12.87
2018-05-16T01:52:16.640Z,12.95
2018-05-16T01:54:45.692Z,12.90
2018-05-16T01:57:15.037Z,12.93
2018-05-16T01:59:44.311Z,12.90
2018-05-16T02:02:13.408Z,12.93
2018-05-16T02:04:42.606Z,12.92
2018-05-16T02:07:11.924Z,13.02
2018-05-16T02:09:41.315Z,13.09
2018-05-16T02:12:10.643Z,13.08
2018-05-16T02:14:39.693Z,13.12
2018-05-16T02:17:08.937Z,13.09
2018-05-16T02:19:38.207Z,13.12
2018-05-16T02:22:07.556Z,13.08
2018-05-16T02:24:36.911Z,13.08
2018-05-16T02:27:06.014Z,13.11
2018-05-16T02:29:35.501Z,13.10
2018-05-16T02:32:04.609Z,13.12
2018-05-16T02:34:33.902Z,13.10
2018-05-16T02:37:03.128Z,13.14
2018-05-16T02:39:32.760Z,13.04
2018-05-16T02:42:01.977Z,13.11
2018-05-16T02:44:31.208Z,13.09
2018-05-16T02:47:07.124Z,13.07
2018-05-16T02:49:36.446Z,13.07
2018-05-16T02:52:05.631Z,13.02
2018-05-16T02:54:34.733Z,13.03
2018-05-16T02:57:03.964Z,13.04
2018-05-16T02:59:33.211Z,13.07
2018-05-16T03:02:02.566Z,13.02
2018-05-16T03:04:31.675Z,12.98
2018-05-16T03:07:00.894Z,13.00
2018-05-16T03:09:30.404Z,12.99
2018-05-16T03:11:59.661Z,13.02
2018-05-16T03:14:28.923Z,12.95
2018-05-16T03:16:58.168Z,12.95
2018-05-16T03:19:27.418Z,12.98
2018-05-16T03:21:56.580Z,12.90
2018-05-16T03:24:26.036Z,12.90
2018-05-16T03:26:55.389Z,12.89
2018-05-16T03:29:25.128Z,12.93
2018-05-16T03:31:54.356Z,12.91
2018-05-16T03:34:23.417Z,12.98
2018-05-16T03:36:52.668Z,13.00
2018-05-16T03:39:22.143Z,13.06
2018-05-16T03:41:51.388Z,13.01
2018-05-16T03:44:20.619Z,13.04
2018-05-16T03:46:49.964Z,13.01
2018-05-16T03:49:19.250Z,12.98
2018-05-16T03:51:48.569Z,12.98
2018-05-16T03:54:17.843Z,13.04
2018-05-16T03:56:46.999Z,13.00
2018-05-16T04:03:42.632Z,13.03
2018-05-16T04:06:11.306Z,13.05
2018-05-16T04:08:39.955Z,13.07
2018-05-16T04:11:08.655Z,13.11
2018-05-16T04:13:37.256Z,13.22
